Lincoln Colliery, Pennsylvania
Current Conditions -  °F | °C
As of 11:58 PM on Friday 24 Oct 2014 (Local Time) from KMUI Reporting Station
Clear Clear  
Wind Chill: 57°   Ceiling: Unl
Heat Index: 57°   Visibility: 10mi
Dew Point: 39°   Wind: 8mph
Humidity: 51%   Direction: 290°WNW
Pressure: 29.92"   Gusts: NA
Location:  40.5592°N, 76.3347°W
Report Text: KMUI 250358Z AUTO 29007KT 10SM CLR 14/04 A2992 RMK AO2 SLP134 T01390040 $
Loading
Personal Weather Stations






























Interactive Weather Map
Tropical Storm Tracking
New forecast layout! Learn more

10-Day Weather Forecast

Advertisements
Track Severe Weather on mobile